Terminal Aerodrome Forecast
Issued by NWS Lake Charles, LA

Home | Current Version | Previous Version | Text Only | Print | Product List | Glossary On
Versions: 1 2 3 4 5 6 7 8 9 10 11 12 13
000
FTUS44 KLCH 181100
TAFBPT
TAF
KBPT 181125Z 1812/1912 00000KT P6SM -RA OVC120
     FM181500 04003KT P6SM BKN050
      TEMPO 1816/1819 5SM -TSRA BKN025CB
     FM181900 08006KT 6SM -RA OVC050
      TEMPO 1819/1822 3SM TSRA BKN025CB
     FM190000 11007KT P6SM OVC050=

USA.gov is the U.S. government's official web portal to all federal, state and local government web resources and services.